sensor_id;sensor_type;location;lat;lon;timestamp;P1;durP1;ratioP1;P2;durP2;ratioP2
14681;SDS011;7429;52.498;13.480;2023-09-18T00:02:43;17.42;;;15.93;;
14681;SDS011;7429;52.498;13.480;2023-09-18T00:05:46;17.20;;;15.68;;
14681;SDS011;7429;52.498;13.480;2023-09-18T00:08:50;16.55;;;15.18;;
14681;SDS011;7429;52.498;13.480;2023-09-18T00:11:55;16.38;;;14.85;;
14681;SDS011;7429;52.498;13.480;2023-09-18T00:14:59;17.60;;;16.00;;
14681;SDS011;7429;52.498;13.480;2023-09-18T00:18:04;15.80;;;14.55;;
14681;SDS011;7429;52.498;13.480;2023-09-18T00:21:07;16.77;;;15.27;;
14681;SDS011;7429;52.498;13.480;2023-09-18T00:24:11;17.23;;;15.82;;
14681;SDS011;7429;52.498;13.480;2023-09-18T00:27:21;17.70;;;16.30;;
14681;SDS011;7429;52.498;13.480;2023-09-18T00:30:25;18.65;;;17.05;;
14681;SDS011;7429;52.498;13.480;2023-09-18T00:33:31;15.70;;;14.40;;
14681;SDS011;7429;52.498;13.480;2023-09-18T00:36:34;19.23;;;17.77;;
14681;SDS011;7429;52.498;13.480;2023-09-18T00:39:37;15.10;;;13.90;;
14681;SDS011;7429;52.498;13.480;2023-09-18T00:42:41;14.80;;;13.55;;
14681;SDS011;7429;52.498;13.480;2023-09-18T00:45:45;14.18;;;12.98;;
14681;SDS011;7429;52.498;13.480;2023-09-18T00:48:53;13.70;;;12.57;;
14681;SDS011;7429;52.498;13.480;2023-09-18T00:51:56;14.13;;;12.93;;
14681;SDS011;7429;52.498;13.480;2023-09-18T00:55:00;13.43;;;12.32;;
14681;SDS011;7429;52.498;13.480;2023-09-18T00:58:05;12.98;;;11.77;;
14681;SDS011;7429;52.498;13.480;2023-09-18T01:01:12;12.43;;;10.70;;
14681;SDS011;7429;52.498;13.480;2023-09-18T01:04:25;13.18;;;12.07;;
14681;SDS011;7429;52.498;13.480;2023-09-18T01:07:34;13.05;;;11.80;;
14681;SDS011;7429;52.498;13.480;2023-09-18T01:10:39;12.88;;;11.68;;
14681;SDS011;7429;52.498;13.480;2023-09-18T01:13:54;13.93;;;12.07;;
14681;SDS011;7429;52.498;13.480;2023-09-18T01:17:05;12.77;;;11.52;;
14681;SDS011;7429;52.498;13.480;2023-09-18T01:20:14;12.68;;;11.43;;
14681;SDS011;7429;52.498;13.480;2023-09-18T01:23:20;12.85;;;11.65;;
14681;SDS011;7429;52.498;13.480;2023-09-18T01:26:26;13.50;;;12.10;;
14681;SDS011;7429;52.498;13.480;2023-09-18T01:29:33;12.65;;;11.48;;
14681;SDS011;7429;52.498;13.480;2023-09-18T01:32:37;13.68;;;12.43;;
14681;SDS011;7429;52.498;13.480;2023-09-18T01:35:42;13.13;;;11.88;;
14681;SDS011;7429;52.498;13.480;2023-09-18T01:38:51;13.15;;;11.95;;
14681;SDS011;7429;52.498;13.480;2023-09-18T01:41:55;16.52;;;15.23;;
14681;SDS011;7429;52.498;13.480;2023-09-18T01:44:59;15.15;;;13.80;;
14681;SDS011;7429;52.498;13.480;2023-09-18T01:48:06;14.45;;;13.07;;
14681;SDS011;7429;52.498;13.480;2023-09-18T01:51:12;15.18;;;13.98;;
14681;SDS011;7429;52.498;13.480;2023-09-18T01:54:17;13.00;;;11.80;;
14681;SDS011;7429;52.498;13.480;2023-09-18T01:57:20;14.32;;;12.73;;
14681;SDS011;7429;52.498;13.480;2023-09-18T02:00:24;12.50;;;11.40;;
14681;SDS011;7429;52.498;13.480;2023-09-18T02:03:28;12.68;;;11.57;;
14681;SDS011;7429;52.498;13.480;2023-09-18T02:06:51;13.00;;;11.68;;
14681;SDS011;7429;52.498;13.480;2023-09-18T02:09:56;13.18;;;11.90;;
14681;SDS011;7429;52.498;13.480;2023-09-18T02:12:59;14.55;;;13.15;;
14681;SDS011;7429;52.498;13.480;2023-09-18T02:16:02;13.70;;;12.38;;
14681;SDS011;7429;52.498;13.480;2023-09-18T02:19:07;13.73;;;12.52;;
14681;SDS011;7429;52.498;13.480;2023-09-18T02:22:11;13.13;;;11.73;;
14681;SDS011;7429;52.498;13.480;2023-09-18T02:25:16;15.70;;;11.23;;
14681;SDS011;7429;52.498;13.480;2023-09-18T02:28:20;12.00;;;11.00;;
14681;SDS011;7429;52.498;13.480;2023-09-18T02:31:23;13.35;;;12.18;;
14681;SDS011;7429;52.498;13.480;2023-09-18T02:34:26;12.75;;;11.45;;
14681;SDS011;7429;52.498;13.480;2023-09-18T02:37:33;13.02;;;11.60;;
14681;SDS011;7429;52.498;13.480;2023-09-18T02:40:37;15.25;;;11.02;;
14681;SDS011;7429;52.498;13.480;2023-09-18T02:43:40;11.57;;;10.52;;
14681;SDS011;7429;52.498;13.480;2023-09-18T02:46:46;13.30;;;11.68;;
14681;SDS011;7429;52.498;13.480;2023-09-18T02:49:51;13.40;;;12.13;;
14681;SDS011;7429;52.498;13.480;2023-09-18T02:52:57;16.15;;;14.65;;
14681;SDS011;7429;52.498;13.480;2023-09-18T02:56:02;13.68;;;12.25;;
14681;SDS011;7429;52.498;13.480;2023-09-18T02:59:09;15.30;;;13.57;;
14681;SDS011;7429;52.498;13.480;2023-09-18T03:02:12;18.77;;;17.23;;
14681;SDS011;7429;52.498;13.480;2023-09-18T03:05:15;15.43;;;14.23;;
14681;SDS011;7429;52.498;13.480;2023-09-18T03:08:18;16.27;;;15.00;;
14681;SDS011;7429;52.498;13.480;2023-09-18T03:11:23;16.20;;;15.00;;
14681;SDS011;7429;52.498;13.480;2023-09-18T03:14:29;13.90;;;12.80;;
14681;SDS011;7429;52.498;13.480;2023-09-18T03:17:32;13.10;;;11.70;;
14681;SDS011;7429;52.498;13.480;2023-09-18T03:20:37;13.13;;;11.20;;
14681;SDS011;7429;52.498;13.480;2023-09-18T03:23:41;11.65;;;10.65;;
14681;SDS011;7429;52.498;13.480;2023-09-18T03:26:45;13.02;;;11.77;;
14681;SDS011;7429;52.498;13.480;2023-09-18T03:29:48;12.38;;;11.35;;
14681;SDS011;7429;52.498;13.480;2023-09-18T03:32:53;12.75;;;11.45;;
14681;SDS011;7429;52.498;13.480;2023-09-18T03:35:58;12.35;;;11.15;;
14681;SDS011;7429;52.498;13.480;2023-09-18T03:39:06;12.95;;;11.75;;
14681;SDS011;7429;52.498;13.480;2023-09-18T03:42:10;13.13;;;11.93;;
14681;SDS011;7429;52.498;13.480;2023-09-18T03:45:13;13.88;;;12.15;;
14681;SDS011;7429;52.498;13.480;2023-09-18T03:48:18;14.02;;;12.73;;
14681;SDS011;7429;52.498;13.480;2023-09-18T03:51:23;14.43;;;13.13;;
14681;SDS011;7429;52.498;13.480;2023-09-18T03:54:26;14.32;;;12.85;;
14681;SDS011;7429;52.498;13.480;2023-09-18T03:57:31;12.98;;;11.68;;
14681;SDS011;7429;52.498;13.480;2023-09-18T04:00:34;12.48;;;11.25;;
14681;SDS011;7429;52.498;13.480;2023-09-18T04:03:38;12.75;;;11.45;;
14681;SDS011;7429;52.498;13.480;2023-09-18T04:06:42;13.85;;;12.50;;
14681;SDS011;7429;52.498;13.480;2023-09-18T04:09:46;13.85;;;12.70;;
14681;SDS011;7429;52.498;13.480;2023-09-18T04:12:50;13.82;;;11.63;;
14681;SDS011;7429;52.498;13.480;2023-09-18T04:15:54;14.30;;;12.80;;
14681;SDS011;7429;52.498;13.480;2023-09-18T04:18:59;13.85;;;11.98;;
14681;SDS011;7429;52.498;13.480;2023-09-18T04:22:02;12.43;;;11.23;;
14681;SDS011;7429;52.498;13.480;2023-09-18T04:25:06;14.25;;;11.82;;
14681;SDS011;7429;52.498;13.480;2023-09-18T04:28:11;13.30;;;12.20;;
14681;SDS011;7429;52.498;13.480;2023-09-18T04:31:14;13.93;;;12.63;;
14681;SDS011;7429;52.498;13.480;2023-09-18T04:34:17;12.95;;;11.88;;
14681;SDS011;7429;52.498;13.480;2023-09-18T04:37:21;12.52;;;11.05;;
14681;SDS011;7429;52.498;13.480;2023-09-18T04:40:24;13.45;;;11.50;;
14681;SDS011;7429;52.498;13.480;2023-09-18T04:43:30;12.80;;;11.65;;
14681;SDS011;7429;52.498;13.480;2023-09-18T04:46:34;14.32;;;13.02;;
14681;SDS011;7429;52.498;13.480;2023-09-18T04:49:37;14.32;;;13.10;;
14681;SDS011;7429;52.498;13.480;2023-09-18T04:52:41;14.73;;;13.15;;
14681;SDS011;7429;52.498;13.480;2023-09-18T04:55:48;14.10;;;12.75;;
14681;SDS011;7429;52.498;13.480;2023-09-18T04:58:53;14.80;;;13.50;;
14681;SDS011;7429;52.498;13.480;2023-09-18T05:01:56;17.10;;;14.32;;
14681;SDS011;7429;52.498;13.480;2023-09-18T05:04:59;14.27;;;12.98;;
14681;SDS011;7429;52.498;13.480;2023-09-18T05:08:05;14.57;;;13.10;;
14681;SDS011;7429;52.498;13.480;2023-09-18T05:11:10;16.55;;;15.32;;
14681;SDS011;7429;52.498;13.480;2023-09-18T05:14:16;16.05;;;14.75;;
14681;SDS011;7429;52.498;13.480;2023-09-18T05:17:20;15.43;;;14.07;;
14681;SDS011;7429;52.498;13.480;2023-09-18T05:20:23;15.38;;;13.85;;
14681;SDS011;7429;52.498;13.480;2023-09-18T05:23:28;14.13;;;12.93;;
14681;SDS011;7429;52.498;13.480;2023-09-18T05:26:31;14.65;;;13.35;;
14681;SDS011;7429;52.498;13.480;2023-09-18T05:29:36;13.73;;;12.52;;
14681;SDS011;7429;52.498;13.480;2023-09-18T05:32:39;14.82;;;13.52;;
14681;SDS011;7429;52.498;13.480;2023-09-18T05:35:44;12.15;;;11.05;;
14681;SDS011;7429;52.498;13.480;2023-09-18T05:38:47;14.05;;;12.65;;
14681;SDS011;7429;52.498;13.480;2023-09-18T05:41:50;13.68;;;12.38;;
14681;SDS011;7429;52.498;13.480;2023-09-18T05:44:54;14.10;;;12.80;;
14681;SDS011;7429;52.498;13.480;2023-09-18T05:47:58;16.92;;;15.45;;
14681;SDS011;7429;52.498;13.480;2023-09-18T05:51:05;15.80;;;14.48;;
14681;SDS011;7429;52.498;13.480;2023-09-18T05:54:09;14.10;;;12.75;;
14681;SDS011;7429;52.498;13.480;2023-09-18T05:57:15;15.38;;;11.70;;
14681;SDS011;7429;52.498;13.480;2023-09-18T06:00:20;13.70;;;12.38;;
14681;SDS011;7429;52.498;13.480;2023-09-18T06:03:23;13.63;;;12.02;;
14681;SDS011;7429;52.498;13.480;2023-09-18T06:06:26;12.43;;;11.23;;
14681;SDS011;7429;52.498;13.480;2023-09-18T06:09:30;11.90;;;10.90;;
14681;SDS011;7429;52.498;13.480;2023-09-18T06:12:33;12.93;;;11.35;;
14681;SDS011;7429;52.498;13.480;2023-09-18T06:15:39;11.93;;;10.93;;
14681;SDS011;7429;52.498;13.480;2023-09-18T06:18:43;11.73;;;10.52;;
14681;SDS011;7429;52.498;13.480;2023-09-18T06:21:46;11.60;;;10.50;;
14681;SDS011;7429;52.498;13.480;2023-09-18T06:24:49;11.80;;;10.75;;
14681;SDS011;7429;52.498;13.480;2023-09-18T06:27:52;13.68;;;10.85;;
14681;SDS011;7429;52.498;13.480;2023-09-18T06:30:57;11.85;;;10.75;;
14681;SDS011;7429;52.498;13.480;2023-09-18T06:34:00;13.30;;;11.93;;
14681;SDS011;7429;52.498;13.480;2023-09-18T06:37:04;13.13;;;11.95;;
14681;SDS011;7429;52.498;13.480;2023-09-18T06:40:09;13.57;;;12.48;;
14681;SDS011;7429;52.498;13.480;2023-09-18T06:43:12;14.05;;;12.75;;
14681;SDS011;7429;52.498;13.480;2023-09-18T06:46:17;14.35;;;13.25;;
14681;SDS011;7429;52.498;13.480;2023-09-18T06:49:23;11.23;;;10.25;;
14681;SDS011;7429;52.498;13.480;2023-09-18T06:52:26;11.95;;;10.38;;
14681;SDS011;7429;52.498;13.480;2023-09-18T06:55:30;11.27;;;10.27;;
14681;SDS011;7429;52.498;13.480;2023-09-18T06:58:34;13.57;;;12.07;;
14681;SDS011;7429;52.498;13.480;2023-09-18T07:01:41;12.75;;;11.73;;
14681;SDS011;7429;52.498;13.480;2023-09-18T07:04:45;17.77;;;14.02;;
14681;SDS011;7429;52.498;13.480;2023-09-18T07:07:52;13.95;;;12.85;;
14681;SDS011;7429;52.498;13.480;2023-09-18T07:10:55;12.52;;;9.65;;
14681;SDS011;7429;52.498;13.480;2023-09-18T07:13:58;14.85;;;10.50;;
14681;SDS011;7429;52.498;13.480;2023-09-18T07:17:04;13.52;;;12.43;;
14681;SDS011;7429;52.498;13.480;2023-09-18T07:20:08;12.02;;;11.02;;
14681;SDS011;7429;52.498;13.480;2023-09-18T07:23:16;9.90;;;9.05;;
14681;SDS011;7429;52.498;13.480;2023-09-18T07:26:19;9.65;;;8.85;;
14681;SDS011;7429;52.498;13.480;2023-09-18T07:29:22;9.43;;;8.60;;
14681;SDS011;7429;52.498;13.480;2023-09-18T07:32:28;9.95;;;9.05;;
14681;SDS011;7429;52.498;13.480;2023-09-18T07:35:39;12.25;;;11.10;;
14681;SDS011;7429;52.498;13.480;2023-09-18T07:38:42;11.00;;;10.00;;
14681;SDS011;7429;52.498;13.480;2023-09-18T07:41:45;13.60;;;12.52;;
14681;SDS011;7429;52.498;13.480;2023-09-18T07:44:49;17.08;;;15.98;;
14681;SDS011;7429;52.498;13.480;2023-09-18T07:47:53;13.07;;;12.18;;
14681;SDS011;7429;52.498;13.480;2023-09-18T07:50:57;10.20;;;8.98;;
14681;SDS011;7429;52.498;13.480;2023-09-18T07:54:13;9.60;;;8.75;;
14681;SDS011;7429;52.498;13.480;2023-09-18T07:57:23;10.82;;;8.23;;
14681;SDS011;7429;52.498;13.480;2023-09-18T08:00:36;9.82;;;7.38;;
14681;SDS011;7429;52.498;13.480;2023-09-18T08:03:41;8.23;;;7.43;;
14681;SDS011;7429;52.498;13.480;2023-09-18T08:06:56;7.88;;;7.18;;
14681;SDS011;7429;52.498;13.480;2023-09-18T08:10:26;8.27;;;7.57;;
14681;SDS011;7429;52.498;13.480;2023-09-18T08:13:31;10.15;;;8.40;;
14681;SDS011;7429;52.498;13.480;2023-09-18T08:16:44;8.38;;;7.68;;
14681;SDS011;7429;52.498;13.480;2023-09-18T08:20:02;11.73;;;10.77;;
14681;SDS011;7429;52.498;13.480;2023-09-18T08:24:14;14.30;;;13.25;;
14681;SDS011;7429;52.498;13.480;2023-09-18T08:27:18;12.07;;;11.27;;
14681;SDS011;7429;52.498;13.480;2023-09-18T08:30:31;9.68;;;8.85;;
14681;SDS011;7429;52.498;13.480;2023-09-18T08:33:36;9.20;;;7.93;;
14681;SDS011;7429;52.498;13.480;2023-09-18T08:44:30;8.27;;;7.53;;
14681;SDS011;7429;52.498;13.480;2023-09-18T08:47:35;8.23;;;7.63;;
14681;SDS011;7429;52.498;13.480;2023-09-18T08:50:48;9.23;;;7.50;;
14681;SDS011;7429;52.498;13.480;2023-09-18T08:57:42;8.75;;;7.10;;
14681;SDS011;7429;52.498;13.480;2023-09-18T09:00:52;8.55;;;6.90;;
14681;SDS011;7429;52.498;13.480;2023-09-18T09:04:05;7.40;;;6.30;;
14681;SDS011;7429;52.498;13.480;2023-09-18T09:10:44;7.60;;;6.82;;
14681;SDS011;7429;52.498;13.480;2023-09-18T09:14:01;8.25;;;5.35;;
14681;SDS011;7429;52.498;13.480;2023-09-18T09:17:19;7.63;;;5.80;;
14681;SDS011;7429;52.498;13.480;2023-09-18T09:20:27;6.88;;;5.85;;
14681;SDS011;7429;52.498;13.480;2023-09-18T09:23:44;6.60;;;6.05;;
14681;SDS011;7429;52.498;13.480;2023-09-18T09:27:15;6.28;;;5.57;;
14681;SDS011;7429;52.498;13.480;2023-09-18T09:30:24;7.75;;;7.05;;
14681;SDS011;7429;52.498;13.480;2023-09-18T09:33:31;7.68;;;6.30;;
14681;SDS011;7429;52.498;13.480;2023-09-18T09:36:54;9.43;;;6.60;;
14681;SDS011;7429;52.498;13.480;2023-09-18T09:40:03;7.50;;;6.80;;
14681;SDS011;7429;52.498;13.480;2023-09-18T09:43:15;6.20;;;5.57;;
14681;SDS011;7429;52.498;13.480;2023-09-18T09:46:21;9.02;;;8.18;;
14681;SDS011;7429;52.498;13.480;2023-09-18T09:49:31;9.88;;;5.28;;
14681;SDS011;7429;52.498;13.480;2023-09-18T09:52:53;10.63;;;6.32;;
14681;SDS011;7429;52.498;13.480;2023-09-18T09:55:57;6.03;;;5.40;;
14681;SDS011;7429;52.498;13.480;2023-09-18T09:59:02;6.80;;;6.20;;
14681;SDS011;7429;52.498;13.480;2023-09-18T10:02:10;5.63;;;4.88;;
14681;SDS011;7429;52.498;13.480;2023-09-18T10:05:16;8.68;;;5.93;;
14681;SDS011;7429;52.498;13.480;2023-09-18T10:08:21;6.03;;;5.13;;
14681;SDS011;7429;52.498;13.480;2023-09-18T10:11:27;6.43;;;5.72;;
14681;SDS011;7429;52.498;13.480;2023-09-18T10:14:35;7.60;;;5.78;;
14681;SDS011;7429;52.498;13.480;2023-09-18T10:17:59;7.43;;;5.68;;
14681;SDS011;7429;52.498;13.480;2023-09-18T10:21:06;7.75;;;6.07;;
14681;SDS011;7429;52.498;13.480;2023-09-18T10:24:17;6.05;;;5.55;;
14681;SDS011;7429;52.498;13.480;2023-09-18T10:27:26;7.70;;;5.30;;
14681;SDS011;7429;52.498;13.480;2023-09-18T10:30:32;5.35;;;4.85;;
14681;SDS011;7429;52.498;13.480;2023-09-18T10:33:35;6.65;;;5.57;;
14681;SDS011;7429;52.498;13.480;2023-09-18T10:36:40;6.75;;;6.03;;
14681;SDS011;7429;52.498;13.480;2023-09-18T10:39:44;7.22;;;5.78;;
14681;SDS011;7429;52.498;13.480;2023-09-18T10:42:51;6.28;;;5.68;;
14681;SDS011;7429;52.498;13.480;2023-09-18T10:45:58;6.80;;;5.35;;
14681;SDS011;7429;52.498;13.480;2023-09-18T10:49:01;7.40;;;5.47;;
14681;SDS011;7429;52.498;13.480;2023-09-18T10:52:06;5.50;;;4.95;;
14681;SDS011;7429;52.498;13.480;2023-09-18T10:55:14;5.90;;;5.40;;
14681;SDS011;7429;52.498;13.480;2023-09-18T10:58:24;5.03;;;4.53;;
14681;SDS011;7429;52.498;13.480;2023-09-18T11:01:29;7.07;;;5.22;;
14681;SDS011;7429;52.498;13.480;2023-09-18T11:04:33;6.30;;;5.30;;
14681;SDS011;7429;52.498;13.480;2023-09-18T11:07:38;5.68;;;5.15;;
14681;SDS011;7429;52.498;13.480;2023-09-18T11:10:56;5.55;;;5.13;;
14681;SDS011;7429;52.498;13.480;2023-09-18T11:14:05;6.13;;;5.63;;
14681;SDS011;7429;52.498;13.480;2023-09-18T11:17:31;6.55;;;5.95;;
14681;SDS011;7429;52.498;13.480;2023-09-18T11:20:36;5.78;;;5.28;;
14681;SDS011;7429;52.498;13.480;2023-09-18T11:23:42;5.90;;;5.40;;
14681;SDS011;7429;52.498;13.480;2023-09-18T11:26:45;7.53;;;5.60;;
14681;SDS011;7429;52.498;13.480;2023-09-18T11:29:51;6.65;;;6.15;;
14681;SDS011;7429;52.498;13.480;2023-09-18T11:32:58;6.57;;;6.03;;
14681;SDS011;7429;52.498;13.480;2023-09-18T11:36:03;6.60;;;5.95;;
14681;SDS011;7429;52.498;13.480;2023-09-18T11:39:09;6.38;;;5.25;;
14681;SDS011;7429;52.498;13.480;2023-09-18T11:42:17;6.75;;;6.00;;
14681;SDS011;7429;52.498;13.480;2023-09-18T11:45:24;6.30;;;5.70;;
14681;SDS011;7429;52.498;13.480;2023-09-18T11:48:29;6.60;;;6.00;;
14681;SDS011;7429;52.498;13.480;2023-09-18T11:51:35;9.65;;;6.07;;
14681;SDS011;7429;52.498;13.480;2023-09-18T11:54:39;7.57;;;5.43;;
14681;SDS011;7429;52.498;13.480;2023-09-18T11:57:43;7.13;;;5.78;;
14681;SDS011;7429;52.498;13.480;2023-09-18T12:00:50;6.75;;;5.65;;
14681;SDS011;7429;52.498;13.480;2023-09-18T12:04:00;7.68;;;6.05;;
14681;SDS011;7429;52.498;13.480;2023-09-18T12:07:09;6.55;;;5.93;;
14681;SDS011;7429;52.498;13.480;2023-09-18T12:10:14;6.68;;;5.85;;
14681;SDS011;7429;52.498;13.480;2023-09-18T12:13:20;7.03;;;6.13;;
14681;SDS011;7429;52.498;13.480;2023-09-18T12:16:30;9.50;;;6.78;;
14681;SDS011;7429;52.498;13.480;2023-09-18T12:19:51;6.80;;;6.30;;
14681;SDS011;7429;52.498;13.480;2023-09-18T12:22:55;6.10;;;5.55;;
14681;SDS011;7429;52.498;13.480;2023-09-18T12:25:59;6.88;;;6.22;;
14681;SDS011;7429;52.498;13.480;2023-09-18T12:29:05;6.05;;;5.47;;
14681;SDS011;7429;52.498;13.480;2023-09-18T12:32:09;6.18;;;5.50;;
14681;SDS011;7429;52.498;13.480;2023-09-18T12:35:16;5.90;;;5.40;;
14681;SDS011;7429;52.498;13.480;2023-09-18T12:38:20;6.28;;;5.68;;
14681;SDS011;7429;52.498;13.480;2023-09-18T12:41:28;7.57;;;6.60;;
14681;SDS011;7429;52.498;13.480;2023-09-18T12:44:34;6.60;;;5.82;;
14681;SDS011;7429;52.498;13.480;2023-09-18T12:47:40;11.00;;;5.88;;
14681;SDS011;7429;52.498;13.480;2023-09-18T12:50:46;9.00;;;5.70;;
14681;SDS011;7429;52.498;13.480;2023-09-18T12:53:58;7.28;;;6.65;;
14681;SDS011;7429;52.498;13.480;2023-09-18T12:57:03;7.85;;;5.30;;
14681;SDS011;7429;52.498;13.480;2023-09-18T13:00:11;6.03;;;5.53;;
14681;SDS011;7429;52.498;13.480;2023-09-18T13:03:16;7.00;;;6.05;;
14681;SDS011;7429;52.498;13.480;2023-09-18T13:06:21;7.40;;;6.07;;
14681;SDS011;7429;52.498;13.480;2023-09-18T13:09:28;5.97;;;5.47;;
14681;SDS011;7429;52.498;13.480;2023-09-18T13:12:40;6.30;;;5.72;;
14681;SDS011;7429;52.498;13.480;2023-09-18T13:15:57;5.32;;;4.93;;
14681;SDS011;7429;52.498;13.480;2023-09-18T13:19:04;7.35;;;6.65;;
14681;SDS011;7429;52.498;13.480;2023-09-18T13:22:08;7.28;;;6.15;;
14681;SDS011;7429;52.498;13.480;2023-09-18T13:25:11;10.73;;;5.80;;
14681;SDS011;7429;52.498;13.480;2023-09-18T13:28:23;6.95;;;5.82;;
14681;SDS011;7429;52.498;13.480;2023-09-18T13:31:26;6.55;;;5.68;;
14681;SDS011;7429;52.498;13.480;2023-09-18T13:34:30;7.63;;;5.45;;
14681;SDS011;7429;52.498;13.480;2023-09-18T13:37:35;8.90;;;5.50;;
14681;SDS011;7429;52.498;13.480;2023-09-18T13:40:38;9.23;;;6.88;;
14681;SDS011;7429;52.498;13.480;2023-09-18T13:43:42;9.45;;;5.95;;
14681;SDS011;7429;52.498;13.480;2023-09-18T13:46:47;6.72;;;6.05;;
14681;SDS011;7429;52.498;13.480;2023-09-18T13:49:50;8.10;;;6.88;;
14681;SDS011;7429;52.498;13.480;2023-09-18T13:52:55;11.55;;;6.82;;
14681;SDS011;7429;52.498;13.480;2023-09-18T13:55:58;11.20;;;9.68;;
14681;SDS011;7429;52.498;13.480;2023-09-18T13:59:01;9.75;;;8.75;;
14681;SDS011;7429;52.498;13.480;2023-09-18T14:02:05;9.05;;;8.23;;
14681;SDS011;7429;52.498;13.480;2023-09-18T14:05:11;8.45;;;6.80;;
14681;SDS011;7429;52.498;13.480;2023-09-18T14:08:20;9.27;;;7.25;;
14681;SDS011;7429;52.498;13.480;2023-09-18T14:11:23;7.97;;;7.25;;
14681;SDS011;7429;52.498;13.480;2023-09-18T14:14:26;8.20;;;6.80;;
14681;SDS011;7429;52.498;13.480;2023-09-18T14:17:30;12.30;;;8.60;;
14681;SDS011;7429;52.498;13.480;2023-09-18T14:20:35;9.90;;;7.53;;
14681;SDS011;7429;52.498;13.480;2023-09-18T14:23:40;16.90;;;15.23;;
14681;SDS011;7429;52.498;13.480;2023-09-18T14:26:43;11.57;;;10.35;;
14681;SDS011;7429;52.498;13.480;2023-09-18T14:29:46;8.20;;;6.72;;
14681;SDS011;7429;52.498;13.480;2023-09-18T14:32:50;8.70;;;8.10;;
14681;SDS011;7429;52.498;13.480;2023-09-18T14:35:54;8.00;;;6.97;;
14681;SDS011;7429;52.498;13.480;2023-09-18T14:38:59;9.63;;;6.93;;
14681;SDS011;7429;52.498;13.480;2023-09-18T14:42:02;10.25;;;6.00;;
14681;SDS011;7429;52.498;13.480;2023-09-18T14:45:06;13.15;;;9.98;;
14681;SDS011;7429;52.498;13.480;2023-09-18T14:48:11;9.20;;;8.50;;
14681;SDS011;7429;52.498;13.480;2023-09-18T14:51:15;6.28;;;5.63;;
14681;SDS011;7429;52.498;13.480;2023-09-18T14:54:19;8.93;;;7.93;;
14681;SDS011;7429;52.498;13.480;2023-09-18T14:57:24;13.20;;;6.57;;
14681;SDS011;7429;52.498;13.480;2023-09-18T15:00:28;9.38;;;6.68;;
14681;SDS011;7429;52.498;13.480;2023-09-18T15:03:38;6.45;;;4.95;;
14681;SDS011;7429;52.498;13.480;2023-09-18T15:06:43;9.50;;;5.38;;
14681;SDS011;7429;52.498;13.480;2023-09-18T15:09:48;9.85;;;5.18;;
14681;SDS011;7429;52.498;13.480;2023-09-18T15:12:51;8.63;;;7.78;;
14681;SDS011;7429;52.498;13.480;2023-09-18T15:15:56;6.20;;;5.32;;
14681;SDS011;7429;52.498;13.480;2023-09-18T15:18:59;8.50;;;7.28;;
14681;SDS011;7429;52.498;13.480;2023-09-18T15:22:05;4.60;;;3.40;;
14681;SDS011;7429;52.498;13.480;2023-09-18T15:25:10;7.50;;;3.63;;
14681;SDS011;7429;52.498;13.480;2023-09-18T15:28:13;6.05;;;5.43;;
14681;SDS011;7429;52.498;13.480;2023-09-18T15:31:17;9.15;;;4.35;;
14681;SDS011;7429;52.498;13.480;2023-09-18T15:34:23;6.40;;;3.33;;
14681;SDS011;7429;52.498;13.480;2023-09-18T15:37:26;15.32;;;3.92;;
14681;SDS011;7429;52.498;13.480;2023-09-18T15:40:31;7.80;;;3.67;;
14681;SDS011;7429;52.498;13.480;2023-09-18T15:43:34;6.80;;;3.67;;
14681;SDS011;7429;52.498;13.480;2023-09-18T15:46:38;6.38;;;3.88;;
14681;SDS011;7429;52.498;13.480;2023-09-18T15:49:41;8.05;;;4.13;;
14681;SDS011;7429;52.498;13.480;2023-09-18T15:52:44;8.07;;;5.25;;
14681;SDS011;7429;52.498;13.480;2023-09-18T15:55:49;6.07;;;3.60;;
14681;SDS011;7429;52.498;13.480;2023-09-18T15:58:52;5.80;;;3.97;;
14681;SDS011;7429;52.498;13.480;2023-09-18T16:01:55;4.72;;;4.07;;
14681;SDS011;7429;52.498;13.480;2023-09-18T16:04:59;9.32;;;4.60;;
14681;SDS011;7429;52.498;13.480;2023-09-18T16:08:05;7.47;;;4.30;;
14681;SDS011;7429;52.498;13.480;2023-09-18T16:11:10;8.43;;;5.18;;
14681;SDS011;7429;52.498;13.480;2023-09-18T16:14:16;6.10;;;4.15;;
14681;SDS011;7429;52.498;13.480;2023-09-18T16:17:24;10.55;;;4.28;;
14681;SDS011;7429;52.498;13.480;2023-09-18T16:20:27;7.80;;;5.03;;
14681;SDS011;7429;52.498;13.480;2023-09-18T16:23:30;7.32;;;4.63;;
14681;SDS011;7429;52.498;13.480;2023-09-18T16:26:35;14.70;;;5.25;;
14681;SDS011;7429;52.498;13.480;2023-09-18T16:29:38;7.90;;;5.00;;
14681;SDS011;7429;52.498;13.480;2023-09-18T16:32:41;8.43;;;6.03;;
14681;SDS011;7429;52.498;13.480;2023-09-18T16:35:44;8.43;;;6.63;;
14681;SDS011;7429;52.498;13.480;2023-09-18T16:38:48;13.32;;;5.93;;
14681;SDS011;7429;52.498;13.480;2023-09-18T16:41:53;11.68;;;7.35;;
14681;SDS011;7429;52.498;13.480;2023-09-18T16:44:57;8.60;;;5.53;;
14681;SDS011;7429;52.498;13.480;2023-09-18T16:48:01;9.73;;;8.13;;
14681;SDS011;7429;52.498;13.480;2023-09-18T16:51:06;10.27;;;6.13;;
14681;SDS011;7429;52.498;13.480;2023-09-18T16:54:15;7.53;;;4.70;;
14681;SDS011;7429;52.498;13.480;2023-09-18T16:57:24;6.93;;;5.45;;
14681;SDS011;7429;52.498;13.480;2023-09-18T17:00:27;9.25;;;5.45;;
14681;SDS011;7429;52.498;13.480;2023-09-18T17:03:30;10.75;;;5.85;;
14681;SDS011;7429;52.498;13.480;2023-09-18T17:06:34;9.00;;;5.57;;
14681;SDS011;7429;52.498;13.480;2023-09-18T17:09:37;6.53;;;5.25;;
14681;SDS011;7429;52.498;13.480;2023-09-18T17:12:41;13.65;;;6.32;;
14681;SDS011;7429;52.498;13.480;2023-09-18T17:15:45;7.20;;;5.90;;
14681;SDS011;7429;52.498;13.480;2023-09-18T17:18:48;8.40;;;5.47;;
14681;SDS011;7429;52.498;13.480;2023-09-18T17:21:57;9.80;;;8.30;;
14681;SDS011;7429;52.498;13.480;2023-09-18T17:25:22;11.48;;;6.50;;
14681;SDS011;7429;52.498;13.480;2023-09-18T17:28:36;8.40;;;6.38;;
14681;SDS011;7429;52.498;13.480;2023-09-18T17:31:39;9.60;;;7.18;;
14681;SDS011;7429;52.498;13.480;2023-09-18T17:34:43;9.95;;;8.98;;
14681;SDS011;7429;52.498;13.480;2023-09-18T17:37:47;15.45;;;14.25;;
14681;SDS011;7429;52.498;13.480;2023-09-18T17:40:51;13.80;;;10.88;;
14681;SDS011;7429;52.498;13.480;2023-09-18T17:43:55;12.68;;;11.23;;
14681;SDS011;7429;52.498;13.480;2023-09-18T17:46:59;11.45;;;8.48;;
14681;SDS011;7429;52.498;13.480;2023-09-18T17:50:02;8.90;;;8.15;;
14681;SDS011;7429;52.498;13.480;2023-09-18T17:53:06;9.68;;;8.45;;
14681;SDS011;7429;52.498;13.480;2023-09-18T17:56:09;11.10;;;7.75;;
14681;SDS011;7429;52.498;13.480;2023-09-18T17:59:17;8.52;;;6.93;;
14681;SDS011;7429;52.498;13.480;2023-09-18T18:02:22;13.93;;;6.45;;
14681;SDS011;7429;52.498;13.480;2023-09-18T18:05:28;7.43;;;5.60;;
14681;SDS011;7429;52.498;13.480;2023-09-18T18:08:36;8.25;;;5.68;;
14681;SDS011;7429;52.498;13.480;2023-09-18T18:11:40;11.05;;;6.22;;
14681;SDS011;7429;52.498;13.480;2023-09-18T18:14:46;13.77;;;7.93;;
14681;SDS011;7429;52.498;13.480;2023-09-18T18:17:57;5.88;;;5.28;;
14681;SDS011;7429;52.498;13.480;2023-09-18T18:21:04;10.00;;;6.50;;
14681;SDS011;7429;52.498;13.480;2023-09-18T18:24:09;6.57;;;5.97;;
14681;SDS011;7429;52.498;13.480;2023-09-18T18:27:13;7.97;;;6.55;;
14681;SDS011;7429;52.498;13.480;2023-09-18T18:30:21;7.90;;;5.45;;
14681;SDS011;7429;52.498;13.480;2023-09-18T18:33:26;9.43;;;6.88;;
14681;SDS011;7429;52.498;13.480;2023-09-18T18:36:31;9.38;;;6.68;;
14681;SDS011;7429;52.498;13.480;2023-09-18T18:39:40;9.38;;;6.65;;
14681;SDS011;7429;52.498;13.480;2023-09-18T18:42:44;8.40;;;6.15;;